Time;durP1;ratioP1;P1;durP2;ratioP2;P2;SDS_P1;SDS_P2;PMS_P1;PMS_P2;Temp;Humidity;BMP_temperature;BMP_pressure;BME280_temperature;BME280_humidity;BME280_pressure;Samples;Min_cycle;Max_cycle;Signal;HPM_P1;HPM_P2
2022/10/05 00:02:22;;;;;;;6.73;4.77;;;;;;;7.97;100.00;100704.31;4974735;28;20379;-77
2022/10/05 00:04:51;;;;;;;8.17;5.40;;;;;;;7.93;100.00;100709.06;4974825;28;20177;-77
2022/10/05 00:07:19;;;;;;;7.80;4.90;;;;;;;7.97;100.00;100717.56;4957520;28;20110;-77
2022/10/05 00:09:57;;;;;;;6.93;5.18;;;;;;;7.99;100.00;100713.78;4974953;28;20173;-76
2022/10/05 00:12:23;;;;;;;6.30;5.05;;;;;;;7.97;100.00;100714.91;4974957;28;20034;-75
2022/10/05 00:14:54;;;;;;;6.13;4.50;;;;;;;7.96;100.00;100713.25;4974810;28;20035;-75
2022/10/05 00:17:24;;;;;;;7.60;4.57;;;;;;;7.87;100.00;100700.88;4993960;28;20482;-75
2022/10/05 00:19:51;;;;;;;10.13;5.60;;;;;;;7.97;100.00;100715.75;4994293;28;20533;-77
2022/10/05 00:22:22;;;;;;;6.23;5.00;;;;;;;7.97;100.00;100717.56;4994156;28;20381;-77
2022/10/05 00:24:54;;;;;;;9.77;5.20;;;;;;;7.95;100.00;100716.88;4993915;28;20124;-76
2022/10/05 00:27:23;;;;;;;7.57;5.07;;;;;;;7.94;100.00;100715.22;4993830;28;20092;-77
2022/10/05 00:29:50;;;;;;;7.90;4.90;;;;;;;7.93;100.00;100710.91;4994098;28;20377;-76
2022/10/05 00:32:16;;;;;;;6.33;5.10;;;;;;;7.96;100.00;100718.56;4994342;28;20034;-75
2022/10/05 00:35:08;;;;;;;8.57;5.90;;;;;;;8.03;100.00;100716.97;4994088;28;20709;-77
2022/10/05 00:37:33;;;;;;;7.43;5.60;;;;;;;8.04;100.00;100716.00;4993700;28;20093;-77
2022/10/05 00:40:00;;;;;;;8.10;5.77;;;;;;;8.02;100.00;100717.97;4993532;28;20034;-76
2022/10/05 00:42:49;;;;;;;7.63;5.53;;;;;;;8.11;100.00;100733.00;4993814;28;20030;-76
2022/10/05 00:45:23;;;;;;;6.47;5.10;;;;;;;8.08;100.00;100727.97;4993735;28;20031;-75
2022/10/05 00:48:11;;;;;;;6.63;5.27;;;;;;;8.07;100.00;100726.31;4993531;28;20030;-75
2022/10/05 00:50:43;;;;;;;8.63;5.67;;;;;;;8.07;100.00;100735.09;4993618;28;20044;-76
2022/10/05 00:53:12;;;;;;;6.87;4.63;;;;;;;8.09;100.00;100737.59;4993562;28;20041;-75
2022/10/05 00:55:44;;;;;;;9.60;5.75;;;;;;;8.07;100.00;100732.44;4993296;28;20127;-76
2022/10/05 00:58:15;;;;;;;8.40;5.37;;;;;;;8.08;100.00;100738.59;4993405;28;20030;-75
2022/10/05 01:00:52;;;;;;;7.77;4.47;;;;;;;8.07;100.00;100737.75;4975892;28;20037;-76
2022/10/05 01:03:32;;;;;;;9.53;4.90;;;;;;;8.03;100.00;100732.88;4976122;28;20030;-75
2022/10/05 01:06:00;;;;;;;7.47;4.80;;;;;;;8.08;100.00;100733.28;4993501;28;20034;-76
2022/10/05 01:08:44;;;;;;;8.75;5.07;;;;;;;8.10;100.00;100735.81;4993445;28;20033;-75
2022/10/05 01:11:19;;;;;;;6.87;4.73;;;;;;;8.11;100.00;100737.47;4993032;28;20034;-75
2022/10/05 01:13:53;;;;;;;8.23;5.37;;;;;;;8.07;100.00;100736.91;4993264;28;20019;-75
2022/10/05 01:16:39;;;;;;;8.27;4.90;;;;;;;8.05;100.00;100738.88;4975306;28;20046;-76
2022/10/05 01:19:26;;;;;;;6.23;5.03;;;;;;;8.03;100.00;100740.84;4993099;28;20163;-76
2022/10/05 01:22:12;;;;;;;8.17;4.50;;;;;;;7.99;100.00;100742.13;4975359;28;20034;-76
2022/10/05 01:24:47;;;;;;;9.50;4.73;;;;;;;7.93;100.00;100746.19;4992971;28;20116;-75
2022/10/05 01:27:44;;;;;;;6.20;4.80;;;;;;;7.96;100.00;100748.56;4993254;28;20041;-75
2022/10/05 01:30:17;;;;;;;4.73;3.83;;;;;;;7.89;100.00;100734.22;4992906;28;20033;-75
2022/10/05 01:33:16;;;;;;;4.80;3.83;;;;;;;7.68;100.00;100704.44;4992957;28;20062;-76
2022/10/05 01:36:39;;;;;;;4.87;3.77;;;;;;;7.89;100.00;100734.22;4992661;28;20112;-76
2022/10/05 01:39:44;;;;;;;5.50;4.63;;;;;;;7.87;100.00;100735.34;4969684;28;20177;-75
2022/10/05 01:42:21;;;;;;;6.30;5.13;;;;;;;7.84;100.00;100730.34;4949149;28;20046;-76
2022/10/05 01:44:59;;;;;;;5.17;4.30;;;;;;;7.83;100.00;100744.56;4993381;28;20031;-77
2022/10/05 01:47:45;;;;;;;6.43;4.20;;;;;;;7.82;100.00;100745.56;4992206;28;20031;-76
2022/10/05 01:50:23;;;;;;;6.27;4.23;;;;;;;7.83;100.00;100744.56;4992757;28;20035;-76
2022/10/05 01:53:04;;;;;;;4.30;3.80;;;;;;;7.77;100.00;100749.44;4992474;28;20049;-76
2022/10/05 01:55:52;;;;;;;5.90;4.30;;;;;;;7.78;100.00;100737.88;4992494;28;20433;-77
2022/10/05 01:58:24;;;;;;;5.13;4.13;;;;;;;7.82;100.00;100741.09;4984578;28;20093;-77
2022/10/05 02:01:11;;;;;;;4.27;3.87;;;;;;;7.87;100.00;100745.97;4992642;28;20026;-76
2022/10/05 02:03:42;;;;;;;5.27;3.93;;;;;;;7.80;100.00;100737.72;4992789;28;20031;-76
2022/10/05 02:06:14;;;;;;;4.40;3.67;;;;;;;7.82;100.00;100748.22;4992919;28;20449;-76
2022/10/05 02:08:47;;;;;;;6.17;4.33;;;;;;;7.84;100.00;100755.03;4992458;28;20066;-77
2022/10/05 02:11:14;;;;;;;6.33;3.93;;;;;;;7.86;100.00;100762.84;4975094;28;20049;-77
2022/10/05 02:13:46;;;;;;;5.17;3.93;;;;;;;7.78;100.00;100729.06;4992205;28;20038;-77
2022/10/05 02:16:30;;;;;;;4.63;3.77;;;;;;;7.90;100.00;100753.63;4992133;28;20133;-76
2022/10/05 02:19:08;;;;;;;3.93;3.40;;;;;;;7.91;100.00;100747.34;4992422;28;20471;-74
2022/10/05 02:21:35;;;;;;;4.97;3.83;;;;;;;7.76;100.00;100731.03;4992462;28;20125;-76
2022/10/05 02:24:07;;;;;;;4.33;3.73;;;;;;;7.86;100.00;100746.94;4992336;28;20033;-76
2022/10/05 02:26:35;;;;;;;4.37;3.07;;;;;;;7.81;100.00;100735.94;4992460;28;20041;-76
2022/10/05 02:29:04;;;;;;;4.23;3.43;;;;;;;7.83;100.00;100733.97;4992650;28;20026;-76
2022/10/05 02:31:46;;;;;;;4.70;3.20;;;;;;;7.86;100.00;100734.50;4992433;28;20138;-76
2022/10/05 02:34:22;;;;;;;3.97;3.57;;;;;;;7.87;100.00;100730.88;4992215;28;20026;-77
2022/10/05 02:37:11;;;;;;;4.90;3.50;;;;;;;7.92;100.00;100738.38;4992175;28;20030;-76
2022/10/05 02:39:56;;;;;;;;;;;;;;;7.94;100.00;100731.13;4963233;28;20042;-77
2022/10/05 02:42:24;;;;;;;4.33;3.23;;;;;;;7.91;100.00;100734.06;4992243;28;19916;-76
2022/10/05 02:45:03;;;;;;;4.50;3.77;;;;;;;7.91;100.00;100734.06;4992115;28;20523;-76
2022/10/05 02:47:56;;;;;;;4.35;3.38;;;;;;;7.93;100.00;100734.75;4992524;28;20040;-77
2022/10/05 02:51:00;;;;;;;4.47;3.70;;;;;;;7.98;100.00;100745.75;4992384;28;20038;-75
2022/10/05 02:53:39;;;;;;;3.67;3.33;;;;;;;7.96;100.00;100739.75;4931944;29;20133;-76
2022/10/05 02:56:13;;;;;;;5.73;3.50;;;;;;;7.99;100.00;100740.31;4932202;29;20111;-76
2022/10/05 02:59:01;;;;;;;4.10;3.70;;;;;;;8.00;100.00;100734.03;4968656;28;20070;-77
2022/10/05 03:01:29;;;;;;;3.97;3.60;;;;;;;7.94;100.00;100728.47;4995152;28;20031;-77
2022/10/05 03:04:10;;;;;;;5.80;3.95;;;;;;;7.94;100.00;100739.06;4978274;28;20552;-76
2022/10/05 03:06:54;;;;;;;4.43;3.57;;;;;;;7.76;100.00;100704.53;4995739;28;20077;-77
2022/10/05 03:09:24;;;;;;;4.77;3.60;;;;;;;7.93;100.00;100729.44;4995838;28;20072;-77
2022/10/05 03:12:08;;;;;;;5.87;4.17;;;;;;;7.94;100.00;100715.22;4995325;28;20478;-76
2022/10/05 03:15:01;;;;;;;4.17;3.77;;;;;;;7.94;100.00;100731.13;4995653;28;20034;-76
2022/10/05 03:17:47;;;;;;;4.23;3.60;;;;;;;7.94;100.00;100733.78;4996271;28;20042;-76
2022/10/05 03:20:50;;;;;;;3.77;3.43;;;;;;;7.90;100.00;100741.19;4995818;28;20038;-76
2022/10/05 03:23:37;;;;;;;4.97;3.10;;;;;;;7.83;100.00;100741.94;4985314;28;20038;-75
2022/10/05 03:26:17;;;;;;;3.80;3.50;;;;;;;7.72;100.00;100732.31;4995685;28;20037;-75
2022/10/05 03:29:01;;;;;;;3.73;3.20;;;;;;;7.74;100.00;100739.13;4994984;28;20039;-77
2022/10/05 03:31:47;;;;;;;4.90;2.97;;;;;;;7.67;100.00;100735.41;4995318;28;20026;-76
2022/10/05 03:34:20;;;;;;;6.00;3.73;;;;;;;7.66;100.00;100747.00;4995083;28;20057;-76
2022/10/05 03:37:03;;;;;;;3.43;3.13;;;;;;;7.66;100.00;100743.50;4994976;28;20069;-76
2022/10/05 03:39:43;;;;;;;4.13;3.20;;;;;;;7.63;100.00;100739.31;4994763;28;20077;-75
2022/10/05 03:42:43;;;;;;;3.50;3.17;;;;;;;7.68;100.00;100739.72;4995024;28;20037;-75
2022/10/05 03:45:32;;;;;;;3.77;3.47;;;;;;;7.72;100.00;100738.44;4994602;28;20045;-77
2022/10/05 03:48:13;;;;;;;5.03;4.45;;;;;;;7.70;100.00;100745.72;4994581;28;20566;-75
2022/10/05 03:51:05;;;;;;;6.53;5.40;;;;;;;7.71;100.00;100736.78;4994633;28;20624;-75
2022/10/05 03:53:55;;;;;;;7.60;6.80;;;;;;;7.69;100.00;100724.66;4994338;28;20089;-76
2022/10/05 03:56:46;;;;;;;8.33;7.53;;;;;;;7.82;100.00;100740.25;4977476;28;20496;-76
2022/10/05 03:59:25;;;;;;;10.20;9.20;;;;;;;7.80;100.00;100728.94;4994357;28;20478;-76
2022/10/05 04:02:00;;;;;;;10.93;9.93;;;;;;;7.88;100.00;100747.63;4994341;28;20031;-75
2022/10/05 04:04:33;;;;;;;11.70;10.50;;;;;;;7.78;100.00;100737.88;4994846;28;20066;-75
2022/10/05 04:07:00;;;;;;;14.03;12.83;;;;;;;7.82;100.00;100757.00;4994619;28;20030;-76
2022/10/05 04:09:32;;;;;;;10.43;9.53;;;;;;;7.86;100.00;100760.19;4994294;28;20101;-76
2022/10/05 04:12:16;;;;;;;10.03;8.90;;;;;;;7.91;100.00;100768.53;4994018;28;20088;-77
2022/10/05 04:14:58;;;;;;;9.17;8.37;;;;;;;7.96;100.00;100760.97;4994242;28;20074;-76
2022/10/05 04:17:38;;;;;;;6.27;5.77;;;;;;;7.97;100.00;100752.03;4994492;28;20049;-76
2022/10/05 04:20:26;;;;;;;6.97;6.37;;;;;;;8.02;100.00;100769.19;4994734;28;20030;-76
2022/10/05 04:22:56;;;;;;;7.45;6.85;;;;;;;8.05;100.00;100781.31;4995368;28;20037;-79
2022/10/05 04:25:28;;;;;;;5.93;5.43;;;;;;;8.03;100.00;100784.13;4977046;28;20056;-77
2022/10/05 04:28:08;;;;;;;6.83;6.10;;;;;;;8.02;100.00;100768.34;4976624;28;20030;-75
2022/10/05 04:30:38;;;;;;;3.83;3.53;;;;;;;8.06;100.00;100782.97;4993461;28;20044;-74
2022/10/05 04:33:09;;;;;;;4.20;3.80;;;;;;;7.99;100.00;100788.03;4993758;28;20042;-75
2022/10/05 04:35:53;;;;;;;4.30;3.13;;;;;;;8.00;100.00;100784.41;4993975;28;20114;-75
2022/10/05 04:38:27;;;;;;;4.10;3.43;;;;;;;8.04;100.00;100779.66;4993820;28;20042;-70
2022/10/05 04:41:04;;;;;;;4.17;3.77;;;;;;;8.05;100.00;100781.31;4993447;28;20045;-71
2022/10/05 04:43:48;;;;;;;3.90;3.40;;;;;;;7.98;100.00;100769.63;4993527;28;20045;-71
2022/10/05 04:46:50;;;;;;;4.30;3.53;;;;;;;8.02;100.00;100793.06;4993694;28;20027;-69
2022/10/05 04:49:22;;;;;;;4.57;3.47;;;;;;;8.05;100.00;100789.28;4993485;28;20038;-70
2022/10/05 04:52:12;;;;;;;4.00;3.40;;;;;;;8.05;100.00;100792.75;4993262;28;20080;-69
2022/10/05 04:54:52;;;;;;;5.53;3.50;;;;;;;8.04;100.00;100795.56;4993247;28;20037;-71
2022/10/05 04:58:02;;;;;;;3.33;3.03;;;;;;;8.02;100.00;100793.06;4993359;28;20575;-69
2022/10/05 05:00:40;;;;;;;4.20;3.27;;;;;;;7.97;100.00;100794.47;4981776;28;20100;-70
2022/10/05 05:03:17;;;;;;;3.77;3.47;;;;;;;7.97;100.00;100797.13;4985316;28;20129;-72
2022/10/05 05:06:05;;;;;;;3.60;3.30;;;;;;;7.94;100.00;100794.78;4981334;28;20038;-70
2022/10/05 05:08:49;;;;;;;3.45;3.15;;;;;;;7.91;100.00;100782.63;4930596;28;20038;-71
2022/10/05 05:11:38;;;;;;;5.80;3.73;;;;;;;7.84;100.00;100768.28;4973842;28;20574;-70
2022/10/05 05:14:41;;;;;;;3.80;3.45;;;;;;;7.92;100.00;100784.31;4973687;28;20042;-69
2022/10/05 05:17:32;;;;;;;5.67;3.90;;;;;;;7.98;100.00;100781.06;4894902;29;20112;-71
2022/10/05 05:19:57;;;;;;;4.23;3.83;;;;;;;7.96;100.00;100784.84;4895133;29;20208;-72
2022/10/05 05:22:32;;;;;;;7.97;4.50;;;;;;;8.00;100.00;100783.56;4943204;28;20134;-73
2022/10/05 05:25:16;;;;;;;6.27;4.07;;;;;;;8.00;100.00;100788.88;4961874;28;20367;-70
2022/10/05 05:27:53;;;;;;;8.57;4.23;;;;;;;7.99;100.00;100787.22;4986585;28;20031;-71
2022/10/05 05:30:28;;;;;;;5.47;4.17;;;;;;;7.96;100.00;100776.91;4961551;28;20026;-70
2022/10/05 05:33:16;;;;;;;6.07;4.40;;;;;;;7.98;100.00;100785.53;4995706;28;20022;-71
2022/10/05 05:36:07;;;;;;;5.05;4.55;;;;;;;8.05;100.00;100791.94;4979101;28;20393;-70
2022/10/05 05:38:38;;;;;;;8.60;5.67;;;;;;;8.12;100.00;100803.66;4974970;28;20031;-71
2022/10/05 05:41:11;;;;;;;11.20;4.33;;;;;;;8.16;100.00;100794.41;4958851;28;20042;-71
2022/10/05 05:44:04;;;;;;;5.77;4.37;;;;;;;8.17;100.00;100806.69;4960719;28;20041;-70
2022/10/05 05:46:39;;;;;;;7.50;4.50;;;;;;;8.11;100.00;100790.53;4958465;28;20031;-72
2022/10/05 05:49:20;;;;;;;5.33;4.67;;;;;;;8.12;100.00;100798.34;4974344;28;20069;-70
2022/10/05 05:51:54;;;;;;;4.27;3.80;;;;;;;8.08;100.00;100787.16;4956036;28;20491;-71
2022/10/05 05:54:36;;;;;;;4.87;4.33;;;;;;;8.18;100.00;100797.75;4972432;28;20031;-71
2022/10/05 05:57:17;;;;;;;7.23;3.97;;;;;;;8.17;100.00;100801.38;4974992;28;20035;-72
2022/10/05 06:00:07;;;;;;;3.20;2.90;;;;;;;8.18;100.00;100803.06;4977470;28;20035;-70
2022/10/05 06:03:01;;;;;;;4.40;4.00;;;;;;;8.19;100.00;100795.94;4981490;28;20031;-71
2022/10/05 06:05:36;;;;;;;3.90;3.50;;;;;;;7.97;100.00;100774.09;4968429;28;20039;-70
2022/10/05 06:08:11;;;;;;;4.50;3.37;;;;;;;8.07;100.00;100795.25;4975112;28;20118;-71
2022/10/05 06:10:46;;;;;;;4.00;3.23;;;;;;;8.12;100.00;100800.16;4975380;28;20096;-69
2022/10/05 06:13:32;;;;;;;4.27;3.87;;;;;;;8.09;100.00;100798.59;4972404;28;20434;-71
2022/10/05 06:16:34;;;;;;;5.43;3.37;;;;;;;8.11;100.00;100788.72;4970733;28;20165;-70
2022/10/05 06:19:08;;;;;;;5.97;3.70;;;;;;;8.05;100.00;100776.84;4968885;28;20101;-73
2022/10/05 06:21:55;;;;;;;4.97;4.00;;;;;;;8.19;100.00;100790.63;4962414;28;20027;-72
2022/10/05 06:24:58;;;;;;;8.07;5.10;;;;;;;8.24;100.00;100791.84;4972594;28;20042;-71
2022/10/05 06:27:26;;;;;;;9.07;4.83;;;;;;;8.31;100.00;100792.94;4966619;28;20027;-71
2022/10/05 06:30:03;;;;;;;4.82;4.00;;;;;;;8.40;100.00;100795.75;4971833;28;20023;-72
2022/10/05 06:32:35;;;;;;;6.40;4.38;;;;;;;8.49;100.00;100797.50;4954336;28;20132;-73
2022/10/05 06:35:17;;;;;;;7.70;5.87;;;;;;;8.48;100.00;100794.00;4957301;28;20442;-71
2022/10/05 06:37:42;;;;;;;5.70;4.70;;;;;;;8.55;100.00;100810.16;4976525;28;20471;-72
2022/10/05 06:40:26;;;;;;;4.87;4.33;;;;;;;8.55;100.00;100815.47;4976122;28;20066;-70
2022/10/05 06:43:21;;;;;;;6.60;4.57;;;;;;;8.49;100.00;100811.59;4976385;28;20125;-71
2022/10/05 06:46:19;;;;;;;6.93;4.10;;;;;;;8.46;100.00;100830.47;4976174;28;20067;-71
2022/10/05 06:48:59;;;;;;;4.63;4.03;;;;;;;8.44;100.00;100832.44;4933182;28;20813;-70
2022/10/05 06:51:35;;;;;;;3.90;3.50;;;;;;;8.44;100.00;100832.44;4976326;28;20034;-72
2022/10/05 06:54:37;;;;;;;4.40;3.97;;;;;;;8.35;100.00;100839.44;4976325;28;20145;-71
2022/10/05 06:57:18;;;;;;;4.33;3.93;;;;;;;8.22;100.00;100841.56;4976037;28;20471;-71
2022/10/05 07:00:14;;;;;;;5.40;4.43;;;;;;;8.18;100.00;100848.16;4976404;28;20031;-73
2022/10/05 07:02:43;;;;;;;6.80;6.17;;;;;;;8.08;100.00;100850.81;4976154;28;20035;-71
2022/10/05 07:05:29;;;;;;;4.82;4.38;;;;;;;8.03;100.00;100846.94;4982249;28;20033;-72
2022/10/05 07:08:29;;;;;;;6.30;5.67;;;;;;;8.02;100.00;100861.19;4981000;28;20106;-71
2022/10/05 07:11:03;;;;;;;7.43;4.93;;;;;;;7.97;100.00;100864.25;4975860;28;20125;-72
2022/10/05 07:13:50;;;;;;;5.67;5.00;;;;;;;7.99;100.00;100850.84;4975673;28;20041;-74
2022/10/05 07:16:26;;;;;;;9.37;4.70;;;;;;;8.03;100.00;100857.53;4975570;28;20145;-72
2022/10/05 07:19:01;;;;;;;6.50;5.20;;;;;;;8.01;100.00;100860.34;4975746;28;20031;-73
2022/10/05 07:21:39;;;;;;;6.87;4.70;;;;;;;7.99;100.00;100866.78;4958421;28;20019;-71
2022/10/05 07:24:31;;;;;;;6.53;4.25;;;;;;;7.93;100.00;100862.88;4976682;28;20022;-72
2022/10/05 07:27:17;;;;;;;6.27;4.90;;;;;;;8.02;100.00;100872.63;4979288;28;20374;-71
2022/10/05 07:29:52;;;;;;;7.83;4.70;;;;;;;8.05;100.00;100871.50;4975755;28;20471;-71
2022/10/05 07:32:35;;;;;;;5.57;5.00;;;;;;;8.10;100.00;100879.03;4975952;28;20129;-70
2022/10/05 07:37:52;;;;;;;5.33;4.80;;;;;;;8.13;100.00;100887.56;4975506;28;20034;-71
2022/10/05 07:38:04;;;;;;;6.10;4.97;;;;;;;8.18;100.00;100892.41;4975440;28;20026;-72
2022/10/05 07:40:38;;;;;;;6.03;5.07;;;;;;;8.22;100.00;100899.94;4975497;28;20031;-70
2022/10/05 07:43:13;;;;;;;5.37;4.07;;;;;;;8.01;100.00;100862.16;4975712;28;20078;-71
2022/10/05 07:46:20;;;;;;;9.37;7.37;;;;;;;8.28;100.00;100890.56;4974881;28;20030;-71
2022/10/05 07:49:09;;;;;;;6.27;5.00;;;;;;;8.33;100.00;100893.63;4977792;28;20117;-70
2022/10/05 07:51:40;;;;;;;5.63;5.03;;;;;;;8.40;100.00;100888.63;4982079;28;20057;-70
2022/10/05 07:54:31;;;;;;;5.87;5.13;;;;;;;8.45;100.00;100889.03;4988144;28;20475;-72
2022/10/05 07:56:59;;;;;;;5.30;4.80;;;;;;;8.48;100.00;100899.34;4980429;28;20041;-70
2022/10/05 07:59:42;;;;;;;5.18;4.68;;;;;;;8.54;100.00;100893.44;4979784;28;20134;-71
2022/10/05 08:02:33;;;;;;;9.37;6.00;;;;;;;8.61;100.00;100910.44;4977855;28;20482;-71
2022/10/05 08:05:16;;;;;;;7.00;5.00;;;;;;;8.61;100.00;100910.44;4959883;28;20455;-75
2022/10/05 08:07:42;;;;;;;6.67;5.70;;;;;;;8.62;100.00;100906.81;4976954;28;20023;-75
2022/10/05 08:10:51;;;;;;;6.40;5.40;;;;;;;8.62;100.00;100917.44;4976248;28;20093;-72
2022/10/05 08:13:46;;;;;;;10.57;6.17;;;;;;;8.67;100.00;100909.84;4965626;28;20366;-71
2022/10/05 08:16:16;;;;;;;6.23;5.23;;;;;;;8.69;100.00;100913.22;4945036;28;20046;-71
2022/10/05 08:19:13;;;;;;;12.87;6.60;;;;;;;8.82;100.00;100921.69;4975599;28;20034;-72
2022/10/05 08:21:45;;;;;;;10.50;5.83;;;;;;;8.88;100.00;100913.13;4952339;28;20424;-71
2022/10/05 08:24:47;;;;;;;10.87;5.87;;;;;;;9.03;100.00;100923.25;4977561;28;20058;-71
2022/10/05 08:27:27;;;;;;;7.47;5.37;;;;;;;9.08;100.00;100935.09;4976631;28;20030;-72
2022/10/05 08:30:01;;;;;;;7.90;5.10;;;;;;;9.11;100.00;100941.94;4977502;28;20557;-70
2022/10/05 08:32:49;;;;;;;11.27;5.37;;;;;;;9.17;100.00;100938.69;4963099;28;20031;-71
2022/10/05 08:35:34;;;;;;;15.50;6.33;;;;;;;9.26;100.00;100948.44;4980187;28;20026;-70
2022/10/05 08:38:12;;;;;;;9.63;5.47;;;;;;;9.31;100.00;100944.34;4978945;28;20034;-71
2022/10/05 08:41:01;;;;;;;7.97;4.82;;;;;;;9.39;100.00;100940.94;4980454;28;20034;-71
2022/10/05 08:43:49;;;;;;;8.53;5.17;;;;;;;9.39;100.00;100948.06;4976818;28;20066;-72
2022/10/05 08:46:39;;;;;;;5.90;5.03;;;;;;;9.36;100.00;100956.34;4981231;28;20034;-71
2022/10/05 08:49:30;;;;;;;7.90;5.10;;;;;;;9.39;100.00;100959.53;4979022;28;20031;-71
2022/10/05 08:52:23;;;;;;;6.30;5.10;;;;;;;9.41;100.00;100956.72;4933254;28;20035;-73
2022/10/05 08:55:16;;;;;;;6.10;4.10;;;;;;;9.28;100.00;100947.31;4976790;28;20043;-72
2022/10/05 08:57:50;;;;;;;8.87;3.77;;;;;;;9.33;100.00;100957.47;4975278;28;20041;-71
2022/10/05 09:00:21;;;;;;;5.47;3.77;;;;;;;9.31;100.00;100946.16;4974669;28;20125;-71
2022/10/05 09:03:07;;;;;;;4.63;3.80;;;;;;;9.35;100.00;100944.88;4974719;28;20474;-72
2022/10/05 09:06:13;;;;;;;6.20;4.33;;;;;;;9.45;100.00;100947.47;4925066;28;20035;-70
2022/10/05 09:08:50;;;;;;;6.33;3.67;;;;;;;9.36;100.00;100921.78;4974496;28;20023;-71
2022/10/05 09:11:33;;;;;;;4.70;3.40;;;;;;;9.55;100.00;100954.41;4959401;28;20026;-72
2022/10/05 09:14:46;;;;;;;6.77;3.83;;;;;;;9.72;100.00;100946.56;4973852;28;20070;-70
2022/10/05 09:17:31;;;;;;;4.13;3.47;;;;;;;9.90;100.00;100953.53;4945328;28;20050;-73
2022/10/05 09:20:36;;;;;;;4.67;3.70;;;;;;;10.06;99.49;100955.47;4957559;28;20622;-72
2022/10/05 09:23:13;;;;;;;6.63;3.40;;;;;;;10.23;98.94;100953.81;4978169;28;20027;-71
2022/10/05 09:25:50;;;;;;;5.30;3.37;;;;;;;10.43;96.82;100959.78;4978574;28;20917;-73
2022/10/05 09:28:47;;;;;;;3.50;3.20;;;;;;;10.35;97.62;100962.38;4976538;28;20043;-71
2022/10/05 09:31:37;;;;;;;4.87;3.50;;;;;;;10.36;96.39;100958.72;4975320;28;20129;-72
2022/10/05 09:34:40;;;;;;;3.90;3.60;;;;;;;10.20;96.23;100970.94;4977292;28;20049;-72
2022/10/05 09:37:37;;;;;;;3.80;3.50;;;;;;;10.14;97.60;100971.53;4976613;28;20379;-73
2022/10/05 09:40:21;;;;;;;3.57;3.27;;;;;;;10.07;97.12;100965.13;4960058;28;20031;-71
2022/10/05 09:43:14;;;;;;;3.07;2.77;;;;;;;10.06;96.29;100967.97;4977869;28;20022;-72
2022/10/05 09:46:12;;;;;;;3.13;2.83;;;;;;;10.08;97.47;100969.47;4978397;28;20464;-72
2022/10/05 09:49:10;;;;;;;3.08;2.78;;;;;;;10.05;96.50;100966.28;4982345;28;20085;-72
2022/10/05 09:52:00;;;;;;;5.50;3.30;;;;;;;10.03;95.88;100974.44;4982647;28;20027;-73
2022/10/05 09:54:52;;;;;;;2.83;2.53;;;;;;;9.90;95.92;100974.81;4976804;28;20410;-73
2022/10/05 09:57:48;;;;;;;3.23;2.93;;;;;;;9.90;96.34;100974.81;4977126;28;20035;-72
2022/10/05 10:00:14;;;;;;;4.63;2.93;;;;;;;9.98;96.16;100968.72;4977387;28;20035;-72
2022/10/05 10:03:17;;;;;;;6.00;4.27;;;;;;;10.11;95.62;100970.97;4978556;28;20425;-73
2022/10/05 10:05:46;;;;;;;5.57;4.10;;;;;;;10.33;94.35;100970.53;4979701;28;20026;-72
2022/10/05 10:08:20;;;;;;;;;;;;;;;10.46;94.13;100970.97;4977569;28;20073;-71
2022/10/05 10:10:59;;;;;;;4.60;3.87;;;;;;;10.39;92.37;100958.41;4977013;28;19917;-73
2022/10/05 10:13:55;;;;;;;6.97;4.43;;;;;;;10.55;93.57;100964.69;4977447;28;20038;-72
2022/10/05 10:16:52;;;;;;;5.73;4.40;;;;;;;10.61;92.75;100967.72;4977108;28;20050;-72
2022/10/05 10:19:36;;;;;;;5.73;4.57;;;;;;;10.72;91.52;100962.13;4963507;28;20041;-70
2022/10/05 10:22:07;;;;;;;4.60;4.20;;;;;;;10.81;91.94;100964.66;4976902;28;20121;-72
2022/10/05 10:25:26;;;;;;;3.70;3.20;;;;;;;10.91;92.18;100964.53;4976432;28;20035;-73
2022/10/05 10:28:20;;;;;;;6.07;4.10;;;;;;;10.95;91.39;100963.22;4879360;29;20037;-71
2022/10/05 10:31:17;;;;;;;5.80;5.13;;;;;;;10.98;91.24;100965.56;4947783;28;20058;-71
2022/10/05 10:34:02;;;;;;;6.07;3.87;;;;;;;10.98;90.13;100970.06;4976284;28;20529;-72
2022/10/05 10:36:52;;;;;;;3.43;3.13;;;;;;;11.00;90.06;100968.09;4976283;28;20031;-72
2022/10/05 10:39:36;;;;;;;4.10;3.67;;;;;;;11.13;89.64;100971.13;4959127;28;20477;-71
2022/10/05 10:42:20;;;;;;;3.67;3.37;;;;;;;11.22;89.44;100962.16;4976146;28;20042;-71
2022/10/05 10:44:58;;;;;;;6.13;3.20;;;;;;;11.45;89.24;100959.72;4976552;28;20037;-72
2022/10/05 10:47:29;;;;;;;5.22;2.80;;;;;;;11.52;87.17;100960.72;4976142;28;20112;-73
2022/10/05 10:50:40;;;;;;;12.10;8.37;;;;;;;11.69;86.76;100965.09;4976341;28;20031;-70
2022/10/05 10:53:42;;;;;;;3.10;2.80;;;;;;;11.74;86.42;100961.94;4938971;28;20105;-72
2022/10/05 10:56:17;;;;;;;6.47;2.70;;;;;;;11.76;86.75;100966.09;4978110;28;20031;-73
2022/10/05 10:59:04;;;;;;;3.17;2.87;;;;;;;11.73;87.89;100966.44;4977998;28;20049;-70
2022/10/05 11:01:35;;;;;;;2.93;2.63;;;;;;;11.72;86.97;100971.94;4978020;28;20121;-72
2022/10/05 11:04:07;;;;;;;2.67;2.20;;;;;;;11.64;86.33;100969.28;4977075;28;20065;-72
2022/10/05 11:06:32;;;;;;;3.40;2.60;;;;;;;11.35;87.06;100973.22;4979267;28;20026;-71
2022/10/05 11:09:10;;;;;;;2.60;2.37;;;;;;;11.19;88.79;100973.13;4980093;28;20045;-70
2022/10/05 11:11:59;;;;;;;2.67;2.47;;;;;;;11.10;88.45;100974.13;4961596;28;20038;-71
2022/10/05 11:15:00;;;;;;;2.50;2.30;;;;;;;11.01;89.77;100964.44;4977031;28;20045;-71
2022/10/05 11:17:45;;;;;;;5.53;2.63;;;;;;;10.95;90.44;100971.22;4976470;28;20058;-71
2022/10/05 11:20:39;;;;;;;3.10;2.90;;;;;;;10.86;91.23;100969.50;4975023;28;20102;-71
2022/10/05 11:23:32;;;;;;;3.20;2.60;;;;;;;10.93;90.62;100972.38;4975783;28;20049;-72
2022/10/05 11:26:33;;;;;;;4.53;3.23;;;;;;;10.92;90.56;100978.69;4975983;28;20027;-71
2022/10/05 11:29:20;;;;;;;6.07;3.63;;;;;;;10.93;90.50;100988.34;4946772;28;20101;-71
2022/10/05 11:32:35;;;;;;;6.17;3.30;;;;;;;10.80;91.37;100978.97;4975512;28;20035;-72
2022/10/05 11:35:25;;;;;;;4.27;3.47;;;;;;;10.80;90.86;100997.63;4976352;28;20038;-70
2022/10/05 11:38:13;;;;;;;3.73;3.20;;;;;;;10.80;91.47;101000.28;4988341;28;20038;-72
2022/10/05 11:40:48;;;;;;;6.60;3.17;;;;;;;10.71;91.43;101000.41;4989992;28;20434;-70
2022/10/05 11:43:25;;;;;;;9.70;4.17;;;;;;;10.63;92.11;100987.03;4994901;28;20117;-71
2022/10/05 11:46:12;;;;;;;3.95;3.40;;;;;;;10.61;93.35;101000.50;4994977;28;20034;-71
2022/10/05 11:49:16;;;;;;;5.88;3.42;;;;;;;10.57;93.57;101004.47;4994828;28;20038;-74
2022/10/05 11:52:00;;;;;;;3.60;3.10;;;;;;;10.62;93.59;100996.84;4982042;28;20034;-72
2022/10/05 11:54:59;;;;;;;3.80;3.27;;;;;;;10.59;93.86;100996.31;4980377;28;20031;-75
2022/10/05 11:57:36;;;;;;;7.77;3.73;;;;;;;10.60;93.89;100993.50;4945800;28;20082;-75
2022/10/05 12:00:15;;;;;;;6.40;3.30;;;;;;;10.64;93.56;101000.19;4989187;28;20030;-75
2022/10/05 12:02:58;;;;;;;5.43;3.23;;;;;;;10.62;93.79;101001.34;4985060;28;20378;-75
2022/10/05 12:05:43;;;;;;;5.27;3.50;;;;;;;10.55;94.47;100996.66;4985255;28;20123;-75
2022/10/05 12:08:39;;;;;;;5.30;3.77;;;;;;;10.55;94.62;101001.13;4989866;28;20255;-77
2022/10/05 12:11:08;;;;;;;3.57;3.27;;;;;;;10.55;94.69;100991.31;4985974;28;20035;-74
2022/10/05 12:13:53;;;;;;;7.47;3.40;;;;;;;10.59;94.56;101006.97;4986559;28;20030;-76
2022/10/05 12:16:40;;;;;;;4.00;3.17;;;;;;;10.62;95.15;100991.53;4959803;28;20051;-75
2022/10/05 12:19:12;;;;;;;3.93;3.53;;;;;;;10.70;94.57;101004.91;4977620;28;20031;-74
2022/10/05 12:22:03;;;;;;;10.43;3.87;;;;;;;10.71;94.75;101006.56;4978401;28;20047;-76
2022/10/05 12:24:37;;;;;;;4.90;3.23;;;;;;;10.79;94.79;101019.94;4947067;28;20058;-79
2022/10/05 12:27:21;;;;;;;7.03;3.57;;;;;;;10.83;95.07;101015.97;4980223;28;20023;-74
2022/10/05 12:29:56;;;;;;;3.47;3.17;;;;;;;10.77;94.95;101015.75;4979455;28;20027;-74
2022/10/05 12:32:29;;;;;;;4.17;3.77;;;;;;;10.79;94.91;101017.28;4958547;28;20018;-75
2022/10/05 12:35:04;;;;;;;4.73;3.13;;;;;;;10.74;94.72;101016.91;4974755;28;20382;-74
2022/10/05 12:37:39;;;;;;;4.23;3.37;;;;;;;10.78;94.50;101025.44;4974572;28;20031;-73